Terminal Aerodrome Forecast
Issued by NWS Springfield, MO

Home | Current Version | Previous Version | Text Only | Print | Product List | Glossary On
Versions: 1 2 3 4 5 6 7 8 9 10 11 12 13 14 15 16 17 18 19 20 21 22 23 24 25
000
FTUS43 KSGF 252300
TAFSGF
TAF
KSGF 252323Z 2600/2624 VRB05KT P6SM SKC
     FM260500 17008KT P6SM BKN120 OVC200
     FM261200 21009KT P6SM VCSH BKN045 OVC100
      TEMPO 2612/2616 4SM -RASN OVC035
     FM261600 29015G26KT P6SM BKN030
     FM262300 30012KT P6SM SCT040=

USA.gov is the U.S. government's official web portal to all federal, state and local government web resources and services.